PUUANAHULU HI US current weather conditions

sailwx.info

Wind from 331 at 6 knots gusting 13

Air temperature 21.1° C
Dewpoint 18.1° C

Last reported at 2018-Apr-20 00:37 UTC.
Time now 2018-Apr-20 01:15 UTC

Location: N 19°50' W 155°46'.
View on Google Maps.

See reports from other nearby stations

  
Tides and Currents Weather Stations Pressure Air Temp Water Temp Dewpoint Dewpoint Depression Visibility Wind Speed Wind Dir Waves Ship Positions
date/time (UTC)wind fromknots sea level pressurealtimeterstation pressurevisibilityair tempwater tempwave heightnotes
2018-Apr-20 00:37 331 6 gusting 13 21.1
2018-Apr-19 23:37 012 9 gusting 14 22.2
2018-Apr-19 22:37 300 6 gusting 10 23.9
2018-Apr-19 21:37 301 6 gusting 12 22.8
2018-Apr-19 20:37 325 5 gusting 13 23.9
2018-Apr-19 19:37 336 3 gusting 7 22.8
2018-Apr-19 18:37 081 2 gusting 6 21.1
2018-Apr-19 17:37 104 5 gusting 7 20.0
2018-Apr-19 16:37 120 2 gusting 6 16.7
2018-Apr-19 15:37 131 3 gusting 7 16.1
2018-Apr-19 14:37 126 6 gusting 7 16.1
2018-Apr-19 13:37 145 4 gusting 5 16.1
2018-Apr-19 12:37 113 2 gusting 6 16.7
2018-Apr-19 11:37 146 2 gusting 5 16.7
2018-Apr-19 10:37 132 4 gusting 8 16.7
2018-Apr-19 09:37 194 6 gusting 9 17.8
2018-Apr-19 08:37 228 2 gusting 6 17.8
2018-Apr-19 07:37 156 5 gusting 6 18.3
2018-Apr-19 06:37 163 5 gusting 6 18.9
2018-Apr-19 05:37 157 3 gusting 5 18.9
2018-Apr-19 04:37 19.4
2018-Apr-19 03:37 024 5 gusting 10 20.0
2018-Apr-19 02:37 011 6 gusting 11 21.1
2018-Apr-19 01:37 339 6 gusting 12 21.7
2018-Apr-19 00:37 343 8 gusting 13 21.7
2018-Apr-18 23:37 268 8 gusting 17 22.2
2018-Apr-18 22:37 264 9 gusting 14 24.4
2018-Apr-18 21:37 314 5 gusting 11 23.9
2018-Apr-18 20:37 312 4 gusting 10 23.9
2018-Apr-18 19:37 285 3 gusting 8 21.7
2018-Apr-18 18:37 292 3 gusting 6 21.7
2018-Apr-18 17:37 137 3 gusting 6 18.9
2018-Apr-18 16:37 147 3 gusting 5 15.0
2018-Apr-18 15:37 152 2 gusting 6 15.0
2018-Apr-18 14:37 114 5 gusting 7 15.0
2018-Apr-18 13:37 114 5 gusting 6 15.6
2018-Apr-18 12:37 116 3 gusting 5 15.6
2018-Apr-18 11:37 124 3 gusting 6 16.1
2018-Apr-18 10:37 117 2 gusting 4 16.7
2018-Apr-18 09:37 130 2 gusting 4 17.2
2018-Apr-18 08:37 186 2 gusting 3 17.2
2018-Apr-18 07:37 146 1 gusting 6 17.8
2018-Apr-18 06:37 190 3 gusting 6 17.8
2018-Apr-18 05:37 127 2 gusting 8 17.8
2018-Apr-18 04:37 235 4 gusting 11 18.3
2018-Apr-18 03:37 020 8 gusting 13 20.6
2018-Apr-18 02:37 035 9 gusting 14 21.7
2018-Apr-18 01:37 001 3 gusting 14 23.3